Carlson, Washington
Current Conditions -  °F | °C
As of 7:03 AM on Friday 31 Oct 2014 (Local Time) from KGRF Reporting Station
Moderate Rain Moderate Rain  
Wind Chill: 50°   Ceiling: 1400
Heat Index: 50°   Visibility: 5mi
Dew Point: 50°   Wind: 6mph
Humidity: 100%   Direction: 230°SW
Pressure: 29.7"   Gusts: NA
Location:  46.6944°N, 122.245°W
Report Text: KGRF 311403Z AUTO 23005KT 5SM RA BR OVC014 10/10 A2970 RMK AO2 OVC V BKN
Loading
Personal Weather Stations






























Interactive Weather Map New forecast layout! Learn more

10-Day Weather Forecast

Advertisements
Track Severe Weather on mobile